HST,Max TemperatureF,Mean TemperatureF,Min TemperatureF,Max Dew PointF,MeanDew PointF,Min DewpointF,Max Humidity, Mean Humidity, Min Humidity, Max Sea Level PressureIn, Mean Sea Level PressureIn, Min Sea Level PressureIn, Max VisibilityMiles, Mean VisibilityMiles, Min VisibilityMiles, Max Wind SpeedMPH, Mean Wind SpeedMPH, Max Gust SpeedMPH,PrecipitationIn, CloudCover, Events, WindDirDegrees
2013-2-1,79,72,65,66,63,57,90,74,58,30.15,30.09,30.05,10,9,2,16,10,22,0.49,7,Rain,31
2013-2-2,79,70,61,58,55,50,78,61,43,30.19,30.14,30.08,10,10,10,15,7,20,0.00,5,,135
2013-2-3,79,71,62,58,56,54,73,58,43,30.19,30.14,30.08,10,10,10,18,9,23,T,6,,349
2013-2-4,79,73,66,64,60,56,87,67,47,30.16,30.11,30.05,10,10,6,17,9,20,0.05,6,Rain,346
2013-2-5,79,72,65,64,62,59,93,74,54,30.12,30.08,30.01,10,8,2,14,8,19,0.65,7,Rain,271
2013-2-6,79,72,65,67,65,62,93,79,64,30.10,30.07,30.01,10,8,1,14,6,17,1.77,7,Rain,240
2013-2-7,77,72,67,68,65,64,93,81,69,30.14,30.09,30.05,10,8,1,12,6,14,2.03,7,Rain,265
2013-2-8,79,72,65,66,63,60,93,78,62,30.15,30.10,30.05,10,10,3,13,6,15,0.11,5,Rain,244
2013-2-9,79,71,63,67,62,54,87,76,64,30.16,30.11,30.06,10,10,3,15,7,18,0.11,6,Rain,55
2013-2-10,80,73,65,65,63,58,87,74,60,30.21,30.16,30.12,10,10,7,15,5,18,0.07,5,Rain,292
2013-2-11,79,72,64,64,62,59,87,71,54,30.22,30.18,30.13,10,10,9,15,8,20,0.05,5,Rain,359
2013-2-12,78,73,67,62,60,55,81,68,54,30.20,30.15,30.09,10,10,2,16,10,20,0.05,7,Rain,359
2013-2-13,78,71,64,61,56,50,87,65,43,30.13,30.09,30.04,10,10,10,14,7,18,T,6,Rain,6
2013-2-14,77,69,61,60,58,55,87,70,53,30.12,30.07,30.01,10,10,7,15,7,18,0.07,6,Rain,264
2013-2-15,73,67,60,66,62,52,87,80,72,30.13,30.09,30.04,10,7,1,15,6,25,1.78,7,Rain,253
2013-2-16,79,73,66,64,62,59,87,73,58,30.17,30.12,30.08,10,10,10,21,10,27,0.05,6,Rain,75
2013-2-17,75,69,63,66,62,58,90,79,68,30.19,30.14,30.10,10,9,2,24,7,26,0.29,7,Rain,69
2013-2-18,73,69,64,69,64,57,93,80,66,30.18,30.14,30.09,10,7,1,23,7,29,1.15,8,Rain,77
2013-2-19,78,72,65,64,62,58,93,77,60,30.18,30.13,30.07,10,9,2,18,8,25,0.52,7,Rain,330
2013-2-20,79,72,64,65,63,61,93,76,58,30.17,30.12,30.07,10,9,2,17,8,22,1.08,6,Rain,304
2013-2-21,79,72,64,68,64,59,93,79,64,30.18,30.13,30.06,10,6,1,16,7,22,3.49,7,Rain,229
2013-2-22,72,68,64,65,64,60,93,86,79,30.17,30.13,30.06,10,6,0,15,7,20,5.26,8,Fog-Rain,250
2013-2-23,75,70,64,64,63,60,93,79,64,30.19,30.13,30.06,10,6,2,15,7,19,2.64,8,Rain,247
2013-2-24,78,72,66,66,63,61,87,74,60,30.13,30.09,30.04,10,9,4,18,10,24,0.31,6,Rain,44
2013-2-25,76,70,64,68,64,60,93,86,78,30.18,30.12,30.06,10,8,2,18,7,24,0.69,7,Rain,7
2013-2-26,78,70,62,65,62,59,87,74,60,30.19,30.15,30.10,10,9,2,17,6,22,0.41,7,Rain,346
2013-2-27,76,70,64,63,61,58,87,74,60,30.22,30.17,30.13,10,10,10,17,6,22,T,6,,78
2013-2-28,79,70,61,60,57,53,78,63,48,30.22,30.17,30.11,10,10,10,16,8,20,T,4,,26